sensor_id;sensor_type;location;lat;lon;timestamp;pressure;altitude;pressure_sealevel;temperature;humidity
51526;BME280;37611;51.794;21.590;2024-02-23T00:00:50;98115.27;;;7.27;100.00
51526;BME280;37611;51.794;21.590;2024-02-23T00:05:12;98113.55;;;7.29;100.00
51526;BME280;37611;51.794;21.590;2024-02-23T00:09:14;98102.97;;;7.30;100.00
51526;BME280;37611;51.794;21.590;2024-02-23T00:13:16;98106.10;;;7.30;100.00
51526;BME280;37611;51.794;21.590;2024-02-23T00:17:17;98099.67;;;7.30;100.00
51526;BME280;37611;51.794;21.590;2024-02-23T00:21:19;98091.11;;;7.30;100.00
51526;BME280;37611;51.794;21.590;2024-02-23T00:25:21;98088.33;;;7.31;100.00
51526;BME280;37611;51.794;21.590;2024-02-23T00:29:24;98080.93;;;7.32;100.00
51526;BME280;37611;51.794;21.590;2024-02-23T00:33:26;98081.59;;;7.34;100.00
51526;BME280;37611;51.794;21.590;2024-02-23T00:37:28;98080.79;;;7.38;100.00
51526;BME280;37611;51.794;21.590;2024-02-23T00:41:29;98081.86;;;7.42;100.00
51526;BME280;37611;51.794;21.590;2024-02-23T00:45:31;98080.18;;;7.46;100.00
51526;BME280;37611;51.794;21.590;2024-02-23T00:49:33;98082.05;;;7.48;100.00
51526;BME280;37611;51.794;21.590;2024-02-23T00:53:35;98073.94;;;7.50;100.00
51526;BME280;37611;51.794;21.590;2024-02-23T00:57:38;98065.72;;;7.52;100.00
51526;BME280;37611;51.794;21.590;2024-02-23T01:01:40;98063.58;;;7.54;100.00
51526;BME280;37611;51.794;21.590;2024-02-23T01:05:41;98059.24;;;7.55;100.00
51526;BME280;37611;51.794;21.590;2024-02-23T01:09:44;98055.66;;;7.58;100.00
51526;BME280;37611;51.794;21.590;2024-02-23T01:13:46;98058.98;;;7.60;100.00
51526;BME280;37611;51.794;21.590;2024-02-23T01:17:47;98056.29;;;7.63;100.00
51526;BME280;37611;51.794;21.590;2024-02-23T01:21:49;98052.00;;;7.64;100.00
51526;BME280;37611;51.794;21.590;2024-02-23T01:25:58;98053.08;;;7.65;100.00
51526;BME280;37611;51.794;21.590;2024-02-23T01:30:01;98046.20;;;7.66;100.00
51526;BME280;37611;51.794;21.590;2024-02-23T01:34:03;98048.45;;;7.66;100.00
51526;BME280;37611;51.794;21.590;2024-02-23T01:38:04;98042.02;;;7.66;100.00
51526;BME280;37611;51.794;21.590;2024-02-23T01:42:06;98042.77;;;7.65;100.00
51526;BME280;37611;51.794;21.590;2024-02-23T01:46:08;98037.44;;;7.66;100.00
51526;BME280;37611;51.794;21.590;2024-02-23T01:50:10;98033.70;;;7.65;100.00
51526;BME280;37611;51.794;21.590;2024-02-23T01:54:15;98028.66;;;7.65;100.00
51526;BME280;37611;51.794;21.590;2024-02-23T01:58:18;98037.29;;;7.67;100.00
51526;BME280;37611;51.794;21.590;2024-02-23T02:02:20;98036.96;;;7.66;100.00
51526;BME280;37611;51.794;21.590;2024-02-23T02:06:22;98031.16;;;7.66;100.00
51526;BME280;37611;51.794;21.590;2024-02-23T02:10:25;98030.17;;;7.67;100.00
51526;BME280;37611;51.794;21.590;2024-02-23T02:14:28;98026.27;;;7.67;100.00
51526;BME280;37611;51.794;21.590;2024-02-23T02:18:33;98019.60;;;7.68;100.00
51526;BME280;37611;51.794;21.590;2024-02-23T02:22:34;98019.21;;;7.68;100.00
51526;BME280;37611;51.794;21.590;2024-02-23T02:26:37;98021.73;;;7.69;100.00
51526;BME280;37611;51.794;21.590;2024-02-23T02:30:39;98021.17;;;7.70;100.00
51526;BME280;37611;51.794;21.590;2024-02-23T02:34:40;98019.05;;;7.71;100.00
51526;BME280;37611;51.794;21.590;2024-02-23T02:38:42;98024.11;;;7.71;100.00
51526;BME280;37611;51.794;21.590;2024-02-23T02:42:44;98023.71;;;7.72;100.00
51526;BME280;37611;51.794;21.590;2024-02-23T02:46:46;98022.42;;;7.72;100.00
51526;BME280;37611;51.794;21.590;2024-02-23T02:50:47;98020.50;;;7.72;100.00
51526;BME280;37611;51.794;21.590;2024-02-23T02:54:51;98021.34;;;7.74;100.00
51526;BME280;37611;51.794;21.590;2024-02-23T02:58:53;98027.04;;;7.76;100.00
51526;BME280;37611;51.794;21.590;2024-02-23T03:02:54;98024.48;;;7.78;100.00
51526;BME280;37611;51.794;21.590;2024-02-23T03:06:56;98023.73;;;7.81;100.00
51526;BME280;37611;51.794;21.590;2024-02-23T03:10:58;98023.88;;;7.84;100.00
51526;BME280;37611;51.794;21.590;2024-02-23T03:15:00;98023.98;;;7.90;100.00
51526;BME280;37611;51.794;21.590;2024-02-23T03:19:01;98029.77;;;7.94;100.00
51526;BME280;37611;51.794;21.590;2024-02-23T03:23:03;98039.64;;;7.97;100.00
51526;BME280;37611;51.794;21.590;2024-02-23T03:27:05;98037.23;;;8.01;100.00
51526;BME280;37611;51.794;21.590;2024-02-23T03:31:07;98035.36;;;8.04;100.00
51526;BME280;37611;51.794;21.590;2024-02-23T03:35:08;98041.52;;;8.03;100.00
51526;BME280;37611;51.794;21.590;2024-02-23T03:39:10;98036.86;;;8.01;100.00
51526;BME280;37611;51.794;21.590;2024-02-23T03:43:12;98042.81;;;7.97;100.00
51526;BME280;37611;51.794;21.590;2024-02-23T03:47:14;98047.55;;;7.91;100.00
51526;BME280;37611;51.794;21.590;2024-02-23T03:51:15;98051.88;;;7.85;100.00
51526;BME280;37611;51.794;21.590;2024-02-23T03:55:18;98054.85;;;7.79;100.00
51526;BME280;37611;51.794;21.590;2024-02-23T03:59:19;98055.59;;;7.75;100.00
51526;BME280;37611;51.794;21.590;2024-02-23T04:03:21;98057.55;;;7.70;100.00
51526;BME280;37611;51.794;21.590;2024-02-23T04:07:23;98059.50;;;7.65;100.00
51526;BME280;37611;51.794;21.590;2024-02-23T04:11:25;98065.52;;;7.61;100.00
51526;BME280;37611;51.794;21.590;2024-02-23T04:15:27;98070.54;;;7.58;100.00
51526;BME280;37611;51.794;21.590;2024-02-23T04:19:29;98072.42;;;7.54;100.00
51526;BME280;37611;51.794;21.590;2024-02-23T04:23:30;98068.62;;;7.52;100.00
51526;BME280;37611;51.794;21.590;2024-02-23T04:27:32;98069.67;;;7.51;100.00
51526;BME280;37611;51.794;21.590;2024-02-23T04:31:36;98076.31;;;7.48;100.00
51526;BME280;37611;51.794;21.590;2024-02-23T04:35:38;98076.25;;;7.44;100.00
51526;BME280;37611;51.794;21.590;2024-02-23T04:39:40;98074.42;;;7.42;100.00
51526;BME280;37611;51.794;21.590;2024-02-23T04:43:43;98079.81;;;7.40;100.00
51526;BME280;37611;51.794;21.590;2024-02-23T04:47:45;98077.00;;;7.38;100.00
51526;BME280;37611;51.794;21.590;2024-02-23T04:51:48;98077.84;;;7.35;100.00
51526;BME280;37611;51.794;21.590;2024-02-23T04:55:50;98077.59;;;7.31;100.00
51526;BME280;37611;51.794;21.590;2024-02-23T04:59:52;98083.61;;;7.26;100.00
51526;BME280;37611;51.794;21.590;2024-02-23T05:03:53;98092.19;;;7.21;100.00
51526;BME280;37611;51.794;21.590;2024-02-23T05:07:55;98098.71;;;7.17;100.00
51526;BME280;37611;51.794;21.590;2024-02-23T05:11:57;98100.45;;;7.12;100.00
51526;BME280;37611;51.794;21.590;2024-02-23T05:15:59;98102.40;;;7.09;100.00
51526;BME280;37611;51.794;21.590;2024-02-23T05:20:00;98101.96;;;7.07;100.00
51526;BME280;37611;51.794;21.590;2024-02-23T05:24:11;98109.02;;;7.06;100.00
51526;BME280;37611;51.794;21.590;2024-02-23T05:28:13;98116.55;;;7.03;100.00
51526;BME280;37611;51.794;21.590;2024-02-23T05:32:14;98120.87;;;7.01;100.00
51526;BME280;37611;51.794;21.590;2024-02-23T05:36:17;98129.38;;;6.99;100.00
51526;BME280;37611;51.794;21.590;2024-02-23T05:40:20;98135.27;;;6.96;100.00
51526;BME280;37611;51.794;21.590;2024-02-23T05:44:22;98139.73;;;6.96;100.00
51526;BME280;37611;51.794;21.590;2024-02-23T05:48:24;98142.91;;;6.94;100.00
51526;BME280;37611;51.794;21.590;2024-02-23T05:52:26;98146.81;;;6.92;100.00
51526;BME280;37611;51.794;21.590;2024-02-23T05:56:27;98151.61;;;6.91;100.00
51526;BME280;37611;51.794;21.590;2024-02-23T06:00:29;98158.44;;;6.91;100.00
51526;BME280;37611;51.794;21.590;2024-02-23T06:04:32;98165.35;;;6.91;100.00
51526;BME280;37611;51.794;21.590;2024-02-23T06:08:35;98168.70;;;6.92;100.00
51526;BME280;37611;51.794;21.590;2024-02-23T06:12:38;98180.69;;;6.91;100.00
51526;BME280;37611;51.794;21.590;2024-02-23T06:16:40;98186.69;;;6.92;100.00
51526;BME280;37611;51.794;21.590;2024-02-23T06:20:42;98196.92;;;6.92;100.00
51526;BME280;37611;51.794;21.590;2024-02-23T06:24:43;98202.19;;;6.90;100.00
51526;BME280;37611;51.794;21.590;2024-02-23T06:28:45;98210.98;;;6.91;100.00
51526;BME280;37611;51.794;21.590;2024-02-23T06:32:47;98211.95;;;6.93;100.00
51526;BME280;37611;51.794;21.590;2024-02-23T06:36:49;98217.13;;;6.92;100.00
51526;BME280;37611;51.794;21.590;2024-02-23T06:40:51;98221.80;;;6.95;100.00
51526;BME280;37611;51.794;21.590;2024-02-23T06:44:53;98218.55;;;6.98;100.00
51526;BME280;37611;51.794;21.590;2024-02-23T06:48:55;98223.88;;;7.02;100.00
51526;BME280;37611;51.794;21.590;2024-02-23T06:52:57;98219.34;;;7.02;100.00
51526;BME280;37611;51.794;21.590;2024-02-23T06:56:59;98225.27;;;7.03;100.00
51526;BME280;37611;51.794;21.590;2024-02-23T07:01:01;98225.86;;;7.04;100.00
51526;BME280;37611;51.794;21.590;2024-02-23T07:05:05;98231.36;;;7.06;100.00
51526;BME280;37611;51.794;21.590;2024-02-23T07:09:06;98237.52;;;7.09;100.00
51526;BME280;37611;51.794;21.590;2024-02-23T07:13:10;98241.42;;;7.10;100.00
51526;BME280;37611;51.794;21.590;2024-02-23T07:17:11;98250.30;;;7.14;100.00
51526;BME280;37611;51.794;21.590;2024-02-23T07:21:13;98251.33;;;7.16;100.00
51526;BME280;37611;51.794;21.590;2024-02-23T07:25:18;98253.30;;;7.20;100.00
51526;BME280;37611;51.794;21.590;2024-02-23T07:29:23;98255.49;;;7.22;100.00
51526;BME280;37611;51.794;21.590;2024-02-23T07:33:24;98265.40;;;7.25;100.00
51526;BME280;37611;51.794;21.590;2024-02-23T07:37:26;98266.70;;;7.29;100.00
51526;BME280;37611;51.794;21.590;2024-02-23T07:41:28;98271.79;;;7.29;100.00
51526;BME280;37611;51.794;21.590;2024-02-23T07:45:30;98272.62;;;7.29;100.00
51526;BME280;37611;51.794;21.590;2024-02-23T07:49:32;98285.39;;;7.29;100.00
51526;BME280;37611;51.794;21.590;2024-02-23T07:53:34;98284.47;;;7.31;100.00
51526;BME280;37611;51.794;21.590;2024-02-23T07:57:36;98288.99;;;7.32;100.00
51526;BME280;37611;51.794;21.590;2024-02-23T08:01:40;98289.42;;;7.34;100.00
51526;BME280;37611;51.794;21.590;2024-02-23T08:05:43;98289.92;;;7.35;100.00
51526;BME280;37611;51.794;21.590;2024-02-23T08:09:44;98295.02;;;7.38;100.00
51526;BME280;37611;51.794;21.590;2024-02-23T08:13:46;98303.47;;;7.41;100.00
51526;BME280;37611;51.794;21.590;2024-02-23T08:17:48;98310.67;;;7.42;100.00
51526;BME280;37611;51.794;21.590;2024-02-23T08:21:51;98310.11;;;7.40;100.00
51526;BME280;37611;51.794;21.590;2024-02-23T08:25:52;98313.00;;;7.40;100.00
51526;BME280;37611;51.794;21.590;2024-02-23T08:29:55;98317.89;;;7.42;100.00
51526;BME280;37611;51.794;21.590;2024-02-23T08:33:57;98317.52;;;7.45;100.00
51526;BME280;37611;51.794;21.590;2024-02-23T08:37:58;98319.48;;;7.49;100.00
51526;BME280;37611;51.794;21.590;2024-02-23T08:42:00;98321.15;;;7.57;100.00
51526;BME280;37611;51.794;21.590;2024-02-23T08:46:02;98332.53;;;7.65;100.00
51526;BME280;37611;51.794;21.590;2024-02-23T08:50:05;98344.26;;;7.66;100.00
51526;BME280;37611;51.794;21.590;2024-02-23T08:54:07;98346.77;;;7.67;100.00
51526;BME280;37611;51.794;21.590;2024-02-23T08:58:09;98351.95;;;7.67;100.00
51526;BME280;37611;51.794;21.590;2024-02-23T09:02:11;98348.88;;;7.70;100.00
51526;BME280;37611;51.794;21.590;2024-02-23T09:06:13;98351.06;;;7.73;100.00
51526;BME280;37611;51.794;21.590;2024-02-23T09:10:16;98358.68;;;7.74;100.00
51526;BME280;37611;51.794;21.590;2024-02-23T09:14:19;98362.25;;;7.76;100.00
51526;BME280;37611;51.794;21.590;2024-02-23T09:18:21;98360.45;;;7.79;100.00
51526;BME280;37611;51.794;21.590;2024-02-23T09:22:22;98362.97;;;7.80;100.00
51526;BME280;37611;51.794;21.590;2024-02-23T09:26:25;98370.52;;;7.78;100.00
51526;BME280;37611;51.794;21.590;2024-02-23T09:30:27;98375.04;;;7.78;100.00
51526;BME280;37611;51.794;21.590;2024-02-23T09:34:29;98373.70;;;7.78;100.00
51526;BME280;37611;51.794;21.590;2024-02-23T09:38:30;98376.02;;;7.77;100.00
51526;BME280;37611;51.794;21.590;2024-02-23T09:42:35;98381.89;;;7.75;100.00
51526;BME280;37611;51.794;21.590;2024-02-23T09:46:42;98382.88;;;7.75;100.00
51526;BME280;37611;51.794;21.590;2024-02-23T09:50:45;98389.55;;;7.78;100.00
51526;BME280;37611;51.794;21.590;2024-02-23T09:54:48;98393.85;;;7.80;100.00
51526;BME280;37611;51.794;21.590;2024-02-23T09:58:51;98394.20;;;7.81;100.00
51526;BME280;37611;51.794;21.590;2024-02-23T10:02:54;98391.74;;;7.81;100.00
51526;BME280;37611;51.794;21.590;2024-02-23T10:06:57;98402.11;;;7.81;100.00
51526;BME280;37611;51.794;21.590;2024-02-23T10:11:00;98407.60;;;7.80;100.00
51526;BME280;37611;51.794;21.590;2024-02-23T10:15:03;98408.19;;;7.81;100.00
51526;BME280;37611;51.794;21.590;2024-02-23T10:19:05;98401.77;;;7.84;100.00
51526;BME280;37611;51.794;21.590;2024-02-23T10:23:08;98409.45;;;7.87;100.00
51526;BME280;37611;51.794;21.590;2024-02-23T10:27:11;98413.73;;;7.92;100.00
51526;BME280;37611;51.794;21.590;2024-02-23T10:31:13;98420.45;;;7.96;100.00
51526;BME280;37611;51.794;21.590;2024-02-23T10:35:15;98423.27;;;8.02;100.00
51526;BME280;37611;51.794;21.590;2024-02-23T10:39:21;98427.98;;;8.08;100.00
51526;BME280;37611;51.794;21.590;2024-02-23T10:43:39;98428.39;;;8.09;100.00
51526;BME280;37611;51.794;21.590;2024-02-23T10:47:44;98429.88;;;8.09;100.00
51526;BME280;37611;51.794;21.590;2024-02-23T10:51:46;98430.48;;;8.09;100.00
51526;BME280;37611;51.794;21.590;2024-02-23T10:55:56;98433.20;;;8.11;100.00
51526;BME280;37611;51.794;21.590;2024-02-23T10:59:59;98439.88;;;8.10;100.00
51526;BME280;37611;51.794;21.590;2024-02-23T11:04:02;98443.17;;;8.11;100.00
51526;BME280;37611;51.794;21.590;2024-02-23T11:08:06;98445.41;;;8.16;100.00
51526;BME280;37611;51.794;21.590;2024-02-23T11:12:08;98449.77;;;8.17;100.00
51526;BME280;37611;51.794;21.590;2024-02-23T11:16:21;98454.21;;;8.19;100.00
51526;BME280;37611;51.794;21.590;2024-02-23T11:20:24;98453.98;;;8.23;100.00
51526;BME280;37611;51.794;21.590;2024-02-23T11:24:30;98454.11;;;8.23;100.00
51526;BME280;37611;51.794;21.590;2024-02-23T11:28:32;98457.48;;;8.23;100.00
51526;BME280;37611;51.794;21.590;2024-02-23T11:32:44;98460.94;;;8.27;100.00
51526;BME280;37611;51.794;21.590;2024-02-23T11:36:51;98468.03;;;8.28;100.00
51526;BME280;37611;51.794;21.590;2024-02-23T11:40:54;98470.98;;;8.27;100.00
51526;BME280;37611;51.794;21.590;2024-02-23T11:44:56;98478.17;;;8.28;100.00
51526;BME280;37611;51.794;21.590;2024-02-23T11:49:00;98479.20;;;8.29;100.00
51526;BME280;37611;51.794;21.590;2024-02-23T11:53:02;98481.42;;;8.31;100.00
51526;BME280;37611;51.794;21.590;2024-02-23T11:57:05;98489.05;;;8.35;100.00
51526;BME280;37611;51.794;21.590;2024-02-23T12:01:07;98497.52;;;8.36;100.00
51526;BME280;37611;51.794;21.590;2024-02-23T12:05:09;98501.90;;;8.39;100.00
51526;BME280;37611;51.794;21.590;2024-02-23T12:09:11;98505.50;;;8.38;100.00
51526;BME280;37611;51.794;21.590;2024-02-23T12:13:14;98503.52;;;8.42;100.00
51526;BME280;37611;51.794;21.590;2024-02-23T12:17:16;98500.98;;;8.45;100.00
51526;BME280;37611;51.794;21.590;2024-02-23T12:21:17;98505.22;;;8.49;100.00
51526;BME280;37611;51.794;21.590;2024-02-23T12:25:19;98508.23;;;8.51;100.00
51526;BME280;37611;51.794;21.590;2024-02-23T12:29:22;98514.44;;;8.51;100.00
51526;BME280;37611;51.794;21.590;2024-02-23T12:33:23;98515.33;;;8.54;100.00
51526;BME280;37611;51.794;21.590;2024-02-23T12:37:25;98514.77;;;8.57;100.00
51526;BME280;37611;51.794;21.590;2024-02-23T12:41:27;98513.09;;;8.63;100.00
51526;BME280;37611;51.794;21.590;2024-02-23T12:45:29;98510.36;;;8.68;100.00
51526;BME280;37611;51.794;21.590;2024-02-23T12:49:31;98512.39;;;8.74;100.00
51526;BME280;37611;51.794;21.590;2024-02-23T12:53:40;98511.69;;;8.75;100.00
51526;BME280;37611;51.794;21.590;2024-02-23T12:57:42;98520.27;;;8.73;100.00
51526;BME280;37611;51.794;21.590;2024-02-23T13:01:44;98525.20;;;8.71;100.00
51526;BME280;37611;51.794;21.590;2024-02-23T13:05:46;98524.40;;;8.69;100.00
51526;BME280;37611;51.794;21.590;2024-02-23T13:09:48;98531.73;;;8.71;100.00
51526;BME280;37611;51.794;21.590;2024-02-23T13:13:50;98534.54;;;8.69;100.00
51526;BME280;37611;51.794;21.590;2024-02-23T13:17:51;98534.89;;;8.68;100.00
51526;BME280;37611;51.794;21.590;2024-02-23T13:21:54;98538.30;;;8.70;100.00
51526;BME280;37611;51.794;21.590;2024-02-23T13:25:55;98550.23;;;8.69;100.00
51526;BME280;37611;51.794;21.590;2024-02-23T13:29:57;98554.73;;;8.68;100.00
51526;BME280;37611;51.794;21.590;2024-02-23T13:33:59;98554.98;;;8.71;100.00
51526;BME280;37611;51.794;21.590;2024-02-23T13:38:01;98561.36;;;8.71;100.00
51526;BME280;37611;51.794;21.590;2024-02-23T13:42:05;98560.77;;;8.72;100.00
51526;BME280;37611;51.794;21.590;2024-02-23T13:46:10;98569.11;;;8.72;100.00
51526;BME280;37611;51.794;21.590;2024-02-23T13:50:11;98578.64;;;8.76;100.00
51526;BME280;37611;51.794;21.590;2024-02-23T13:54:15;98582.41;;;8.73;100.00
51526;BME280;37611;51.794;21.590;2024-02-23T13:58:19;98584.70;;;8.73;100.00
51526;BME280;37611;51.794;21.590;2024-02-23T14:02:25;98587.39;;;8.73;100.00
51526;BME280;37611;51.794;21.590;2024-02-23T14:06:30;98587.21;;;8.71;100.00
51526;BME280;37611;51.794;21.590;2024-02-23T14:10:33;98582.52;;;8.74;100.00
51526;BME280;37611;51.794;21.590;2024-02-23T14:14:35;98569.35;;;8.79;100.00
51526;BME280;37611;51.794;21.590;2024-02-23T14:18:36;98560.23;;;8.85;100.00
51526;BME280;37611;51.794;21.590;2024-02-23T14:22:39;98557.02;;;8.94;100.00
51526;BME280;37611;51.794;21.590;2024-02-23T14:26:41;98563.28;;;8.97;100.00
51526;BME280;37611;51.794;21.590;2024-02-23T14:30:43;98577.75;;;8.96;100.00
51526;BME280;37611;51.794;21.590;2024-02-23T14:34:44;98584.01;;;8.93;100.00
51526;BME280;37611;51.794;21.590;2024-02-23T14:38:47;98593.35;;;8.91;100.00
51526;BME280;37611;51.794;21.590;2024-02-23T14:42:49;98601.98;;;8.84;100.00
51526;BME280;37611;51.794;21.590;2024-02-23T14:46:50;98609.71;;;8.82;100.00
51526;BME280;37611;51.794;21.590;2024-02-23T14:50:52;98613.25;;;8.84;100.00
51526;BME280;37611;51.794;21.590;2024-02-23T14:54:54;98614.25;;;8.88;100.00
51526;BME280;37611;51.794;21.590;2024-02-23T14:58:56;98617.23;;;8.90;100.00
51526;BME280;37611;51.794;21.590;2024-02-23T15:02:58;98619.91;;;8.92;100.00
51526;BME280;37611;51.794;21.590;2024-02-23T15:07:00;98618.84;;;8.92;100.00
51526;BME280;37611;51.794;21.590;2024-02-23T15:11:02;98613.86;;;8.91;100.00
51526;BME280;37611;51.794;21.590;2024-02-23T15:15:04;98629.33;;;8.89;100.00
51526;BME280;37611;51.794;21.590;2024-02-23T15:19:07;98641.11;;;8.90;100.00
51526;BME280;37611;51.794;21.590;2024-02-23T15:23:09;98644.55;;;8.93;100.00
51526;BME280;37611;51.794;21.590;2024-02-23T15:27:10;98642.21;;;8.94;100.00
51526;BME280;37611;51.794;21.590;2024-02-23T15:31:12;98644.92;;;8.93;100.00
51526;BME280;37611;51.794;21.590;2024-02-23T15:35:14;98653.16;;;8.94;100.00
51526;BME280;37611;51.794;21.590;2024-02-23T15:39:16;98651.76;;;8.94;100.00
51526;BME280;37611;51.794;21.590;2024-02-23T15:43:18;98653.17;;;8.91;100.00
51526;BME280;37611;51.794;21.590;2024-02-23T15:47:20;98654.04;;;8.85;100.00
51526;BME280;37611;51.794;21.590;2024-02-23T15:51:22;98653.58;;;8.80;100.00
51526;BME280;37611;51.794;21.590;2024-02-23T15:55:24;98654.35;;;8.78;100.00
51526;BME280;37611;51.794;21.590;2024-02-23T15:59:26;98653.20;;;8.78;100.00
51526;BME280;37611;51.794;21.590;2024-02-23T16:03:29;98659.89;;;8.76;100.00
51526;BME280;37611;51.794;21.590;2024-02-23T16:07:31;98672.56;;;8.75;100.00
51526;BME280;37611;51.794;21.590;2024-02-23T16:11:33;98673.17;;;8.76;100.00
51526;BME280;37611;51.794;21.590;2024-02-23T16:15:35;98676.88;;;8.76;100.00
51526;BME280;37611;51.794;21.590;2024-02-23T16:19:37;98684.20;;;8.76;100.00
51526;BME280;37611;51.794;21.590;2024-02-23T16:23:39;98686.92;;;8.75;100.00
51526;BME280;37611;51.794;21.590;2024-02-23T16:27:41;98697.73;;;8.75;100.00
51526;BME280;37611;51.794;21.590;2024-02-23T16:31:43;98707.73;;;8.76;100.00
51526;BME280;37611;51.794;21.590;2024-02-23T16:35:45;98720.13;;;8.72;100.00
51526;BME280;37611;51.794;21.590;2024-02-23T16:39:47;98721.46;;;8.66;100.00
51526;BME280;37611;51.794;21.590;2024-02-23T16:43:49;98724.08;;;8.68;100.00
51526;BME280;37611;51.794;21.590;2024-02-23T16:47:50;98725.08;;;8.68;100.00
51526;BME280;37611;51.794;21.590;2024-02-23T16:51:53;98735.52;;;8.68;100.00
51526;BME280;37611;51.794;21.590;2024-02-23T16:55:54;98735.81;;;8.64;100.00
51526;BME280;37611;51.794;21.590;2024-02-23T17:00:01;98735.83;;;8.59;100.00
51526;BME280;37611;51.794;21.590;2024-02-23T17:04:03;98739.30;;;8.53;100.00
51526;BME280;37611;51.794;21.590;2024-02-23T17:08:05;98745.05;;;8.53;100.00
51526;BME280;37611;51.794;21.590;2024-02-23T17:12:07;98738.24;;;8.57;100.00
51526;BME280;37611;51.794;21.590;2024-02-23T17:16:09;98737.52;;;8.63;100.00
51526;BME280;37611;51.794;21.590;2024-02-23T17:20:11;98737.52;;;8.68;100.00
51526;BME280;37611;51.794;21.590;2024-02-23T17:24:13;98738.79;;;8.70;100.00
51526;BME280;37611;51.794;21.590;2024-02-23T17:28:15;98737.50;;;8.71;100.00
51526;BME280;37611;51.794;21.590;2024-02-23T17:32:17;98740.23;;;8.68;100.00
51526;BME280;37611;51.794;21.590;2024-02-23T17:36:19;98745.00;;;8.65;100.00
51526;BME280;37611;51.794;21.590;2024-02-23T17:40:20;98739.17;;;8.64;100.00
51526;BME280;37611;51.794;21.590;2024-02-23T17:44:22;98742.72;;;8.64;100.00
51526;BME280;37611;51.794;21.590;2024-02-23T17:48:25;98743.34;;;8.62;100.00
51526;BME280;37611;51.794;21.590;2024-02-23T17:52:27;98738.45;;;8.63;100.00
51526;BME280;37611;51.794;21.590;2024-02-23T17:56:28;98735.63;;;8.63;100.00
51526;BME280;37611;51.794;21.590;2024-02-23T18:00:30;98739.52;;;8.62;100.00
51526;BME280;37611;51.794;21.590;2024-02-23T18:04:32;98745.52;;;8.65;100.00
51526;BME280;37611;51.794;21.590;2024-02-23T18:08:34;98744.21;;;8.66;100.00
51526;BME280;37611;51.794;21.590;2024-02-23T18:12:37;98747.89;;;8.62;100.00
51526;BME280;37611;51.794;21.590;2024-02-23T18:16:39;98754.45;;;8.58;100.00
51526;BME280;37611;51.794;21.590;2024-02-23T18:20:41;98755.86;;;8.55;100.00
51526;BME280;37611;51.794;21.590;2024-02-23T18:24:44;98749.55;;;8.53;100.00
51526;BME280;37611;51.794;21.590;2024-02-23T18:28:45;98751.75;;;8.52;100.00
51526;BME280;37611;51.794;21.590;2024-02-23T18:32:47;98755.05;;;8.52;100.00
51526;BME280;37611;51.794;21.590;2024-02-23T18:36:49;98760.23;;;8.53;100.00
51526;BME280;37611;51.794;21.590;2024-02-23T18:40:51;98757.33;;;8.49;100.00
51526;BME280;37611;51.794;21.590;2024-02-23T18:44:53;98762.19;;;8.43;100.00
51526;BME280;37611;51.794;21.590;2024-02-23T18:48:56;98762.83;;;8.39;100.00
51526;BME280;37611;51.794;21.590;2024-02-23T18:52:59;98758.86;;;8.35;100.00
51526;BME280;37611;51.794;21.590;2024-02-23T18:57:01;98755.09;;;8.33;100.00
51526;BME280;37611;51.794;21.590;2024-02-23T19:01:03;98757.89;;;8.34;100.00
51526;BME280;37611;51.794;21.590;2024-02-23T19:05:08;98762.02;;;8.35;100.00
51526;BME280;37611;51.794;21.590;2024-02-23T19:09:11;98765.19;;;8.34;100.00
51526;BME280;37611;51.794;21.590;2024-02-23T19:13:13;98767.70;;;8.35;100.00
51526;BME280;37611;51.794;21.590;2024-02-23T19:17:15;98762.25;;;8.33;100.00
51526;BME280;37611;51.794;21.590;2024-02-23T19:21:18;98761.50;;;8.28;100.00
51526;BME280;37611;51.794;21.590;2024-02-23T19:25:19;98763.65;;;8.25;100.00
51526;BME280;37611;51.794;21.590;2024-02-23T19:29:22;98761.66;;;8.24;100.00
51526;BME280;37611;51.794;21.590;2024-02-23T19:33:24;98771.46;;;8.24;100.00
51526;BME280;37611;51.794;21.590;2024-02-23T19:37:25;98784.09;;;8.23;100.00
51526;BME280;37611;51.794;21.590;2024-02-23T19:41:27;98797.34;;;8.20;100.00
51526;BME280;37611;51.794;21.590;2024-02-23T19:45:29;98805.83;;;8.14;100.00
51526;BME280;37611;51.794;21.590;2024-02-23T19:49:31;98806.60;;;8.10;100.00
51526;BME280;37611;51.794;21.590;2024-02-23T19:53:33;98805.50;;;8.09;100.00
51526;BME280;37611;51.794;21.590;2024-02-23T19:57:35;98808.71;;;8.08;100.00
51526;BME280;37611;51.794;21.590;2024-02-23T20:01:37;98808.87;;;8.08;100.00
51526;BME280;37611;51.794;21.590;2024-02-23T20:05:39;98811.00;;;8.08;100.00
51526;BME280;37611;51.794;21.590;2024-02-23T20:09:41;98817.77;;;8.08;100.00
51526;BME280;37611;51.794;21.590;2024-02-23T20:13:42;98819.53;;;8.08;100.00
51526;BME280;37611;51.794;21.590;2024-02-23T20:17:44;98815.58;;;8.08;100.00
51526;BME280;37611;51.794;21.590;2024-02-23T20:21:47;98813.96;;;8.08;100.00
51526;BME280;37611;51.794;21.590;2024-02-23T20:25:49;98808.39;;;8.08;100.00
51526;BME280;37611;51.794;21.590;2024-02-23T20:29:51;98809.38;;;8.10;100.00
51526;BME280;37611;51.794;21.590;2024-02-23T20:33:53;98811.91;;;8.09;100.00
51526;BME280;37611;51.794;21.590;2024-02-23T20:37:55;98806.08;;;8.10;100.00
51526;BME280;37611;51.794;21.590;2024-02-23T20:41:59;98801.05;;;8.09;100.00
51526;BME280;37611;51.794;21.590;2024-02-23T20:46:01;98800.27;;;8.10;100.00
51526;BME280;37611;51.794;21.590;2024-02-23T20:50:03;98796.05;;;8.13;100.00
51526;BME280;37611;51.794;21.590;2024-02-23T20:54:06;98794.02;;;8.14;100.00
51526;BME280;37611;51.794;21.590;2024-02-23T20:58:09;98795.13;;;8.13;100.00
51526;BME280;37611;51.794;21.590;2024-02-23T21:02:12;98798.34;;;8.09;100.00
51526;BME280;37611;51.794;21.590;2024-02-23T21:06:20;98790.10;;;8.04;100.00